Terminal Aerodrome Forecast
Issued by NWS

Home | Current Version | Previous Version | Text Only | Print | Product List | Glossary On
Versions: 1 2 3 4 5 6 7 8 9 10 11 12 13 14 15 16 17
000
FTUS43 KGRR 261740
TAFJXN
TAF
KJXN 261740Z 2618/2718 23006KT P6SM BKN200
     FM271100 11003KT 5SM BR BKN100
     FM271200 11004KT 4SM BR VCSH OVC100
     FM271400 15005KT 6SM BR OVC050=

USA.gov is the U.S. government's official web portal to all federal, state and local government web resources and services.